Time;durP1;ratioP1;P1;durP2;ratioP2;P2;SDS_P1;SDS_P2;PMS_P1;PMS_P2;Temp;Humidity;BMP_temperature;BMP_pressure;BME280_temperature;BME280_humidity;BME280_pressure;Samples;Min_cycle;Max_cycle;Signal;HPM_P1;HPM_P2
2023/08/03 00:01:20;;;;;;;12.88;2.40;;;;;;;-146.27;100.00;82109.00;5063865;28;20020;-68
2023/08/03 00:03:45;;;;;;;11.60;1.95;;;;;;;-146.27;100.00;82086.91;5050653;28;20029;-69
2023/08/03 00:06:10;;;;;;;22.70;2.40;;;;;;;-146.27;100.00;82119.03;5052797;28;20028;-69
2023/08/03 00:08:36;;;;;;;15.27;1.80;;;;;;;-146.27;100.00;82127.06;5060447;28;20082;-69
2023/08/03 00:11:01;;;;;;;7.55;1.70;;;;;;;-146.27;100.00;82203.41;5056385;28;20044;-69
2023/08/03 00:13:26;;;;;;;8.13;1.65;;;;;;;-146.27;100.00;82193.34;5054928;28;20485;-69
2023/08/03 00:15:52;;;;;;;10.52;1.60;;;;;;;-146.27;100.00;82151.16;5043714;28;20094;-69
2023/08/03 00:18:17;;;;;;;10.95;1.40;;;;;;;-146.27;100.00;82163.22;5047164;28;20056;-69
2023/08/03 00:20:42;;;;;;;7.43;1.92;;;;;;;-146.27;100.00;82153.19;5045154;28;20028;-69
2023/08/03 00:23:08;;;;;;;13.88;2.05;;;;;;;-146.27;100.00;82159.22;5047720;28;20033;-70
2023/08/03 00:25:33;;;;;;;15.10;1.67;;;;;;;-146.27;100.00;82141.13;5057024;28;20112;-69
2023/08/03 00:27:59;;;;;;;7.97;1.50;;;;;;;-146.27;100.00;82111.00;5048099;28;20108;-69
2023/08/03 00:30:24;;;;;;;14.38;2.08;;;;;;;-146.27;100.00;82115.00;5051902;28;20096;-69
2023/08/03 00:32:49;;;;;;;13.73;3.65;;;;;;;-146.27;100.00;82155.19;5053115;28;20033;-69
2023/08/03 00:35:15;;;;;;;10.13;2.10;;;;;;;-146.27;100.00;82139.13;5046365;28;20714;-69
2023/08/03 00:37:40;;;;;;;10.38;2.08;;;;;;;-146.27;100.00;82123.06;5047377;28;20510;-70
2023/08/03 00:40:07;;;;;;;9.25;2.35;;;;;;;-146.27;100.00;82102.97;5046468;28;20131;-69
2023/08/03 00:42:32;;;;;;;15.02;2.35;;;;;;;-146.27;100.00;82090.91;5049697;28;20078;-69
2023/08/03 00:44:57;;;;;;;10.15;2.08;;;;;;;-146.27;100.00;82143.13;5060258;28;20029;-69
2023/08/03 00:47:23;;;;;;;15.73;2.65;;;;;;;-146.27;100.00;82119.03;5048841;28;20089;-70
2023/08/03 00:49:48;;;;;;;8.30;2.28;;;;;;;-146.27;100.00;82086.91;5049624;28;20059;-69
2023/08/03 00:52:13;;;;;;;16.38;2.78;;;;;;;-146.27;100.00;82147.16;5049279;28;20538;-68
2023/08/03 00:54:39;;;;;;;15.73;3.17;;;;;;;-146.27;100.00;82058.78;5053440;28;20024;-70
2023/08/03 00:57:04;;;;;;;13.13;3.33;;;;;;;-146.27;100.00;82151.16;5056345;28;20024;-69
2023/08/03 00:59:30;;;;;;;9.85;2.55;;;;;;;-146.27;100.00;82139.13;5049245;28;20055;-69
2023/08/03 01:01:55;;;;;;;9.93;2.60;;;;;;;-146.27;100.00;82104.97;5050121;28;20033;-69
2023/08/03 01:04:21;;;;;;;16.08;3.40;;;;;;;-146.27;100.00;82131.09;5059961;28;20388;-70
2023/08/03 01:06:46;;;;;;;17.38;3.70;;;;;;;-146.27;100.00;82086.91;5058678;28;20013;-70
2023/08/03 01:09:12;;;;;;;17.50;3.35;;;;;;;-146.27;100.00;82082.88;5057490;28;20024;-69
2023/08/03 01:11:37;;;;;;;8.68;3.22;;;;;;;-146.27;100.00;82088.91;5058671;28;20055;-70
2023/08/03 01:14:03;;;;;;;13.32;3.47;;;;;;;-146.27;100.00;82167.25;5048952;28;20021;-69
2023/08/03 01:16:28;;;;;;;7.00;3.20;;;;;;;-146.27;100.00;82078.84;5049550;28;20485;-69
2023/08/03 01:18:54;;;;;;;13.43;3.75;;;;;;;-146.27;100.00;82127.06;5049958;28;20059;-70
2023/08/03 01:21:21;;;;;;;24.10;4.63;;;;;;;-146.27;100.00;82109.00;5056817;28;20032;-69
2023/08/03 01:23:48;;;;;;;11.02;3.30;;;;;;;-146.27;100.00;82090.91;5059268;28;20095;-69
2023/08/03 01:26:13;;;;;;;14.80;4.30;;;;;;;-146.27;100.00;82127.06;5056463;28;20024;-69
2023/08/03 01:28:38;;;;;;;14.45;3.63;;;;;;;-146.27;100.00;82082.88;5050157;28;20028;-69
2023/08/03 01:31:04;;;;;;;18.95;4.72;;;;;;;-146.27;100.00;82143.13;5062350;28;20086;-68
2023/08/03 01:33:30;;;;;;;13.80;3.17;;;;;;;-146.27;100.00;82159.22;5056693;28;20028;-69
2023/08/03 01:35:55;;;;;;;14.50;3.72;;;;;;;-146.27;100.00;82173.28;5056965;28;20480;-68
2023/08/03 01:38:21;;;;;;;6.90;3.00;;;;;;;-146.27;100.00;82159.22;5049841;28;20048;-68
2023/08/03 01:40:46;;;;;;;10.05;3.38;;;;;;;-146.27;100.00;82171.25;5056209;28;20020;-68
2023/08/03 01:43:12;;;;;;;7.22;3.17;;;;;;;-146.27;100.00;82153.19;5052990;28;20393;-69
2023/08/03 01:45:37;;;;;;;8.18;3.28;;;;;;;-146.27;100.00;82127.06;5059583;28;20048;-69
2023/08/03 01:48:03;;;;;;;10.23;3.95;;;;;;;-146.27;100.00;82119.03;5054016;28;20078;-69
2023/08/03 01:50:28;;;;;;;9.10;3.60;;;;;;;-146.27;100.00;82129.06;5048476;28;20024;-70
2023/08/03 01:52:53;;;;;;;10.38;3.08;;;;;;;-146.27;100.00;82141.13;5053624;28;20025;-69
2023/08/03 01:55:19;;;;;;;12.23;2.97;;;;;;;-146.27;100.00;82127.06;5051567;28;20412;-69
2023/08/03 01:57:44;;;;;;;4.88;2.63;;;;;;;-146.27;100.00;82165.22;5051646;28;20500;-69
2023/08/03 02:00:10;;;;;;;6.43;3.10;;;;;;;-146.27;100.00;82127.06;5055670;28;20074;-68
2023/08/03 02:02:35;;;;;;;12.93;2.40;;;;;;;-146.27;100.00;82135.09;5055466;28;20035;-68
2023/08/03 02:05:01;;;;;;;11.88;2.90;;;;;;;-146.27;100.00;82171.25;5048255;28;20098;-69
2023/08/03 02:07:56;;;;;;;8.40;2.88;;;;;;;-146.27;100.00;82191.34;5059841;28;20035;-69
2023/08/03 02:10:23;;;;;;;10.75;2.28;;;;;;;-146.27;100.00;82151.16;5055372;28;20024;-69
2023/08/03 02:12:48;;;;;;;9.15;2.30;;;;;;;-146.27;100.00;82169.25;5055417;28;20086;-69
2023/08/03 02:15:14;;;;;;;12.23;2.25;;;;;;;-146.27;100.00;82127.06;5056071;28;20029;-69
2023/08/03 02:17:43;;;;;;;6.78;2.30;;;;;;;-146.27;100.00;82151.16;5053262;28;20033;-69
2023/08/03 02:20:09;;;;;;;8.38;2.05;;;;;;;-146.27;100.00;82143.13;5059764;28;20035;-69
2023/08/03 02:22:35;;;;;;;7.50;2.80;;;;;;;-146.27;100.00;82135.09;5054002;28;20025;-69
2023/08/03 02:25:01;;;;;;;7.15;2.05;;;;;;;-146.27;100.00;82123.06;5050335;28;20047;-69
2023/08/03 02:27:26;;;;;;;6.13;2.10;;;;;;;-146.27;100.00;82133.09;5053656;28;20044;-69
2023/08/03 02:29:52;;;;;;;6.28;1.83;;;;;;;-146.27;100.00;82169.25;5049111;28;20025;-69
2023/08/03 02:32:17;;;;;;;6.65;1.85;;;;;;;-146.27;100.00;82167.25;5050922;28;20060;-68
2023/08/03 02:34:43;;;;;;;6.85;1.98;;;;;;;-146.27;100.00;82199.38;5059242;28;20032;-69
2023/08/03 02:37:08;;;;;;;6.57;1.70;;;;;;;-146.27;100.00;82195.38;5054711;28;20059;-69
2023/08/03 02:39:33;;;;;;;5.00;1.60;;;;;;;-146.27;100.00;82169.25;5052887;28;20052;-69
2023/08/03 02:41:59;;;;;;;5.07;1.90;;;;;;;-146.27;100.00;82209.44;5053873;28;20021;-69
2023/08/03 02:44:24;;;;;;;5.10;1.80;;;;;;;-146.27;100.00;82205.41;5061162;28;20028;-69
2023/08/03 02:46:50;;;;;;;8.18;1.88;;;;;;;-146.27;100.00;82183.31;5062839;28;20024;-69
2023/08/03 02:49:15;;;;;;;8.20;3.38;;;;;;;-146.27;100.00;82181.31;5053411;28;20052;-69
2023/08/03 02:51:43;;;;;;;7.72;2.08;;;;;;;-146.27;100.00;82171.25;5058662;28;20035;-69
2023/08/03 02:54:09;;;;;;;8.05;2.20;;;;;;;-146.27;100.00;82191.34;5063007;28;20078;-69
2023/08/03 02:56:34;;;;;;;5.60;1.70;;;;;;;-146.27;100.00;82187.31;5057866;28;20411;-69
2023/08/03 02:58:59;;;;;;;9.07;2.25;;;;;;;-146.27;100.00;82209.44;5060614;28;20455;-68
2023/08/03 03:01:25;;;;;;;7.50;1.63;;;;;;;-146.27;100.00;82183.31;5060000;28;20408;-69
2023/08/03 03:03:50;;;;;;;7.82;1.90;;;;;;;-146.27;100.00;82209.44;5063613;28;20515;-69
2023/08/03 03:06:16;;;;;;;5.72;2.10;;;;;;;-146.27;100.00;82225.50;5053055;28;20495;-69
2023/08/03 03:08:41;;;;;;;7.35;2.15;;;;;;;-146.27;100.00;82189.34;5060721;28;20013;-69
2023/08/03 03:11:06;;;;;;;11.25;2.20;;;;;;;-146.27;100.00;82199.38;5055873;28;20041;-69
2023/08/03 03:13:32;;;;;;;9.95;2.25;;;;;;;-146.27;100.00;82209.44;5051573;28;20021;-69
2023/08/03 03:15:57;;;;;;;8.50;2.28;;;;;;;-146.27;100.00;82233.53;5052761;28;20659;-68
2023/08/03 03:18:22;;;;;;;11.00;2.13;;;;;;;-146.27;100.00;82225.50;5055114;28;20016;-68
2023/08/03 03:20:48;;;;;;;12.38;2.78;;;;;;;-146.27;100.00;82177.28;5051898;28;20037;-69
2023/08/03 03:23:13;;;;;;;10.60;1.95;;;;;;;-146.27;100.00;82235.53;5065322;28;20075;-69
2023/08/03 03:25:39;;;;;;;10.57;2.95;;;;;;;-146.27;100.00;82317.91;5052195;28;20021;-68
2023/08/03 03:28:04;;;;;;;16.02;2.53;;;;;;;-146.27;100.00;82199.38;5063126;28;20178;-69
2023/08/03 03:30:33;;;;;;;13.75;2.40;;;;;;;-146.27;100.00;82207.41;5051451;28;20464;-69
2023/08/03 03:32:58;;;;;;;10.38;1.85;;;;;;;-146.27;100.00;82223.47;5058503;28;20162;-69
2023/08/03 03:35:24;;;;;;;7.43;1.65;;;;;;;-146.27;100.00;82183.31;5062628;28;20478;-69
2023/08/03 03:37:49;;;;;;;12.27;1.48;;;;;;;-146.27;100.00;82227.50;5050798;28;20453;-69
2023/08/03 03:40:14;;;;;;;8.43;1.48;;;;;;;-146.27;100.00;82261.66;5056022;28;20021;-69
2023/08/03 03:42:40;;;;;;;7.18;1.38;;;;;;;-146.27;100.00;82229.50;5055596;28;20061;-69
2023/08/03 03:45:07;;;;;;;7.80;1.83;;;;;;;-146.27;100.00;82223.47;5062481;28;20511;-69
2023/08/03 03:47:32;;;;;;;10.75;1.75;;;;;;;-146.27;100.00;82203.41;5058875;28;20123;-69
2023/08/03 03:49:58;;;;;;;13.00;1.77;;;;;;;-146.27;100.00;82215.44;5068455;28;20100;-69
2023/08/03 03:52:23;;;;;;;4.13;1.40;;;;;;;-146.27;100.00;82203.41;5064599;28;20033;-69
2023/08/03 03:54:48;;;;;;;10.38;1.58;;;;;;;-146.27;100.00;82255.63;5050890;28;20478;-69
2023/08/03 03:57:14;;;;;;;10.63;1.73;;;;;;;-146.27;100.00;82207.41;5056802;28;20025;-69
2023/08/03 03:59:39;;;;;;;14.05;1.70;;;;;;;-146.27;100.00;82201.38;5057887;28;20040;-69
2023/08/03 04:02:04;;;;;;;8.57;1.63;;;;;;;-146.27;100.00;82171.25;5050458;28;20456;-70
2023/08/03 04:04:30;;;;;;;14.27;2.25;;;;;;;-146.27;100.00;82205.41;5050731;28;20355;-70
2023/08/03 04:06:55;;;;;;;17.38;2.88;;;;;;;-146.27;100.00;82235.53;5051445;28;20029;-68
2023/08/03 04:09:21;;;;;;;24.27;2.97;;;;;;;-146.27;100.00;82231.53;5061089;28;20069;-69
2023/08/03 04:11:46;;;;;;;20.10;3.50;;;;;;;-146.27;100.00;82235.53;5062407;28;20052;-68
2023/08/03 04:14:11;;;;;;;14.13;2.50;;;;;;;-146.27;100.00;82231.53;5053370;28;20028;-67
2023/08/03 04:16:36;;;;;;;25.60;4.50;;;;;;;-146.27;100.00;82221.47;5050562;28;20036;-68
2023/08/03 04:19:02;;;;;;;19.63;3.50;;;;;;;-146.27;100.00;82247.59;5049446;28;20120;-68
2023/08/03 04:21:27;;;;;;;25.08;3.50;;;;;;;-146.27;100.00;82247.59;5052741;28;20029;-67
2023/08/03 04:23:53;;;;;;;30.27;4.05;;;;;;;-146.27;100.00;82225.50;5052517;28;20099;-69
2023/08/03 04:26:18;;;;;;;19.20;3.50;;;;;;;-146.27;100.00;82211.44;5056749;28;20416;-68
2023/08/03 04:28:43;;;;;;;30.75;4.43;;;;;;;-146.27;100.00;82239.56;5050203;28;20499;-67
2023/08/03 04:31:09;;;;;;;28.98;4.38;;;;;;;-146.27;100.00;82281.75;5056216;28;20023;-68
2023/08/03 04:33:34;;;;;;;18.80;3.28;;;;;;;-146.27;100.00;82251.59;5057680;28;20477;-69
2023/08/03 04:36:00;;;;;;;18.27;3.20;;;;;;;-146.27;100.00;82251.59;5064958;28;20412;-67
2023/08/03 04:38:25;;;;;;;24.30;4.00;;;;;;;-146.27;100.00;82147.16;5062547;28;20025;-68
2023/08/03 04:40:51;;;;;;;24.30;3.30;;;;;;;-146.27;100.00;82211.44;5054273;28;20032;-69
2023/08/03 04:43:16;;;;;;;22.50;2.85;;;;;;;-146.27;100.00;82215.44;5051976;28;20021;-67
2023/08/03 04:45:41;;;;;;;15.95;2.58;;;;;;;-146.27;100.00;82259.66;5054773;28;20024;-69
2023/08/03 04:48:07;;;;;;;15.00;2.58;;;;;;;-146.27;100.00;82259.66;5049058;28;20433;-69
2023/08/03 04:50:32;;;;;;;15.55;2.47;;;;;;;-146.27;100.00;82275.72;5050295;28;20025;-68
2023/08/03 04:52:57;;;;;;;10.55;1.95;;;;;;;-146.27;100.00;82279.72;5050977;28;20071;-70
2023/08/03 04:55:23;;;;;;;17.08;2.42;;;;;;;-146.27;100.00;82291.78;5047919;28;20039;-68
2023/08/03 04:57:48;;;;;;;17.00;2.20;;;;;;;-146.27;100.00;82281.75;5050857;28;20048;-69
2023/08/03 05:00:14;;;;;;;17.23;2.97;;;;;;;-146.27;100.00;82362.09;5052921;28;20086;-68
2023/08/03 05:02:39;;;;;;;16.48;2.17;;;;;;;-146.27;100.00;82293.78;5052317;28;20032;-68
2023/08/03 05:05:05;;;;;;;14.93;2.78;;;;;;;-146.27;100.00;82297.81;5058722;28;20771;-69
2023/08/03 05:07:30;;;;;;;17.15;2.55;;;;;;;-146.27;100.00;82251.59;5052851;28;20024;-69
2023/08/03 05:09:55;;;;;;;11.85;2.30;;;;;;;-146.27;100.00;82275.72;5061811;28;20040;-68
2023/08/03 05:12:21;;;;;;;18.77;2.75;;;;;;;-146.27;100.00;82229.50;5053489;28;20044;-69
2023/08/03 05:14:46;;;;;;;11.80;3.35;;;;;;;-146.27;100.00;82219.47;5057689;28;20110;-68
2023/08/03 05:17:12;;;;;;;17.42;2.85;;;;;;;-146.27;100.00;82263.66;5066305;28;20475;-68
2023/08/03 05:19:37;;;;;;;17.17;2.70;;;;;;;-146.27;100.00;82211.44;5050909;28;20035;-69
2023/08/03 05:22:03;;;;;;;23.35;2.88;;;;;;;-146.27;100.00;82263.66;5059418;28;20103;-68
2023/08/03 05:24:28;;;;;;;15.30;2.28;;;;;;;-146.27;100.00;82297.81;5051968;28;20032;-68
2023/08/03 05:26:53;;;;;;;18.42;2.65;;;;;;;-146.27;100.00;82267.69;5050536;28;20108;-69
2023/08/03 05:29:19;;;;;;;16.90;3.17;;;;;;;-146.27;100.00;82249.59;5051028;28;20111;-70
2023/08/03 05:31:48;;;;;;;14.77;1.95;;;;;;;-146.27;100.00;82249.59;5053751;28;20067;-69
2023/08/03 05:34:14;;;;;;;14.27;2.53;;;;;;;-146.27;100.00;82277.72;5042330;28;20150;-69
2023/08/03 05:36:40;;;;;;;15.25;2.47;;;;;;;-146.27;100.00;82243.56;5048343;28;20466;-68
2023/08/03 05:39:05;;;;;;;23.25;3.20;;;;;;;-146.27;100.00;82259.66;5059317;28;20029;-70
2023/08/03 05:41:31;;;;;;;23.58;2.95;;;;;;;-146.27;100.00;82251.59;5048296;28;20086;-68
2023/08/03 05:43:56;;;;;;;15.57;2.38;;;;;;;-146.27;100.00;82263.66;5051851;28;20036;-68
2023/08/03 05:46:21;;;;;;;21.65;3.30;;;;;;;-146.27;100.00;82265.66;5054241;28;20015;-69
2023/08/03 05:48:52;;;;;;;17.77;2.47;;;;;;;-146.27;100.00;82235.53;5058799;28;20488;-68
2023/08/03 05:51:25;;;;;;;17.90;2.40;;;;;;;-146.27;100.00;82221.47;5060369;28;20510;-66
2023/08/03 05:53:51;;;;;;;19.60;2.72;;;;;;;-146.27;100.00;82195.38;5058770;28;20052;-68
2023/08/03 05:56:18;;;;;;;25.60;3.70;;;;;;;-146.27;100.00;82207.41;5053551;28;20060;-67
2023/08/03 05:58:44;;;;;;;16.95;2.78;;;;;;;-146.27;100.00;82235.53;5073013;28;20107;-67
2023/08/03 06:01:11;;;;;;;14.68;2.55;;;;;;;-146.27;100.00;82191.34;5052637;28;20119;-68
2023/08/03 06:03:41;;;;;;;16.85;2.97;;;;;;;-146.27;100.00;82241.56;5049037;28;20044;-68
2023/08/03 06:06:09;;;;;;;14.45;2.97;;;;;;;-146.27;100.00;82211.44;5058704;28;20020;-69
2023/08/03 06:08:36;;;;;;;24.33;4.00;;;;;;;-146.27;100.00;82187.31;5061831;28;20369;-67
2023/08/03 06:11:03;;;;;;;22.65;3.97;;;;;;;-146.27;100.00;82167.25;5053957;28;20124;-69
2023/08/03 06:13:33;;;;;;;16.10;2.80;;;;;;;-146.27;100.00;82161.22;5059876;28;20475;-69
2023/08/03 06:16:10;;;;;;;19.73;3.55;;;;;;;-146.27;100.00;82169.25;5052343;28;20108;-68
2023/08/03 06:19:00;;;;;;;25.98;3.33;;;;;;;-146.27;100.00;82143.13;5056222;28;20032;-68
2023/08/03 06:21:27;;;;;;;17.88;3.83;;;;;;;-146.27;100.00;82227.50;5056487;28;20550;-68
2023/08/03 06:23:55;;;;;;;17.42;4.05;;;;;;;-146.27;100.00;82195.38;5056992;28;20687;-68
2023/08/03 06:26:21;;;;;;;18.63;3.38;;;;;;;-146.27;100.00;82177.28;5064101;28;20080;-70
2023/08/03 06:28:49;;;;;;;15.15;3.38;;;;;;;-146.27;100.00;82193.34;5061914;28;20029;-68
2023/08/03 06:31:32;;;;;;;14.20;3.97;;;;;;;-146.27;100.00;82161.22;5054030;28;20116;-69
2023/08/03 06:33:58;;;;;;;15.82;3.35;;;;;;;-146.27;100.00;82155.19;5055807;28;20480;-71
2023/08/03 06:36:27;;;;;;;17.48;3.30;;;;;;;-146.27;100.00;82151.16;5071427;28;20047;-70
2023/08/03 06:38:53;;;;;;;24.08;4.07;;;;;;;-146.27;100.00;82179.28;5053716;28;20665;-71
2023/08/03 06:41:18;;;;;;;22.27;4.40;;;;;;;-146.27;100.00;82191.34;5066231;28;20100;-69
2023/08/03 06:43:44;;;;;;;24.38;4.05;;;;;;;-146.27;100.00;82167.25;5054907;28;20123;-71
2023/08/03 06:46:10;;;;;;;22.25;3.70;;;;;;;-146.27;100.00;82080.88;5054878;28;20025;-69
2023/08/03 06:48:36;;;;;;;24.15;4.03;;;;;;;-146.27;100.00;82161.22;5055469;28;20107;-70
2023/08/03 06:51:02;;;;;;;16.40;2.75;;;;;;;-146.27;100.00;82054.75;5060148;28;20059;-70
2023/08/03 06:53:28;;;;;;;24.60;3.60;;;;;;;-146.27;100.00;82102.97;5056738;28;20017;-71
2023/08/03 06:55:53;;;;;;;17.02;3.25;;;;;;;-146.27;100.00;82106.97;5054888;28;20476;-71
2023/08/03 06:58:19;;;;;;;17.52;3.47;;;;;;;-146.27;100.00;82123.06;5052140;28;20091;-70
2023/08/03 07:00:45;;;;;;;12.82;2.55;;;;;;;-146.27;100.00;82113.00;5057256;28;20033;-70
2023/08/03 07:03:11;;;;;;;16.30;2.78;;;;;;;-146.27;100.00;82104.97;5055828;28;20116;-70
2023/08/03 07:05:38;;;;;;;14.23;2.85;;;;;;;-146.27;100.00;82066.81;5066936;28;20094;-71
2023/08/03 07:08:04;;;;;;;11.70;2.90;;;;;;;-146.27;100.00;82098.94;5064229;28;20024;-72
2023/08/03 07:10:29;;;;;;;11.18;2.25;;;;;;;-146.27;100.00;82066.81;5076735;28;20120;-71
2023/08/03 07:12:55;;;;;;;9.55;2.30;;;;;;;-146.27;100.00;82052.75;5051520;28;20041;-71
2023/08/03 07:15:20;;;;;;;10.73;2.55;;;;;;;-146.27;100.00;82044.72;5062884;28;20396;-72
2023/08/03 07:17:46;;;;;;;12.73;2.05;;;;;;;-146.27;100.00;82078.84;5051960;28;20021;-71
2023/08/03 07:20:12;;;;;;;4.93;1.60;;;;;;;-146.27;100.00;81986.47;5061272;28;20028;-72
2023/08/03 07:22:37;;;;;;;15.23;2.78;;;;;;;-146.27;100.00;81970.41;5072008;28;20036;-72
2023/08/03 07:25:03;;;;;;;9.63;1.42;;;;;;;-146.27;100.00;81958.34;5057838;28;20040;-73
2023/08/03 07:27:29;;;;;;;8.55;1.88;;;;;;;-146.27;100.00;81904.13;5066956;28;20036;-72
2023/08/03 07:29:54;;;;;;;11.02;1.48;;;;;;;-146.27;100.00;81922.19;5068334;28;20480;-72
2023/08/03 07:32:19;;;;;;;10.93;1.67;;;;;;;-146.27;100.00;81880.00;5062619;28;20111;-71
2023/08/03 07:34:45;;;;;;;6.93;1.20;;;;;;;-146.27;100.00;81894.06;5053000;28;20051;-72
2023/08/03 07:37:10;;;;;;;12.15;1.90;;;;;;;-146.27;100.00;81882.00;5057650;28;20043;-73
2023/08/03 07:39:36;;;;;;;9.05;1.30;;;;;;;-146.27;100.00;81880.00;5054181;28;20092;-72
2023/08/03 07:42:01;;;;;;;9.65;1.85;;;;;;;-146.27;100.00;81880.00;5055169;28;20025;-72
2023/08/03 07:44:27;;;;;;;8.85;1.92;;;;;;;-146.27;100.00;81902.09;5063695;28;20032;-71
2023/08/03 07:46:52;;;;;;;11.50;2.22;;;;;;;-146.27;100.00;81880.00;5057370;28;20440;-72
2023/08/03 07:49:18;;;;;;;4.95;1.88;;;;;;;-146.27;100.00;81861.94;5058898;28;20081;-72
2023/08/03 07:51:48;;;;;;;7.38;2.17;;;;;;;-146.27;100.00;81865.94;5051217;28;20445;-73
2023/08/03 07:54:13;;;;;;;11.98;1.98;;;;;;;-146.27;100.00;81894.06;5059517;28;20033;-72
2023/08/03 07:56:39;;;;;;;5.80;1.92;;;;;;;-146.27;100.00;81888.03;5050128;28;20422;-71
2023/08/03 07:59:05;;;;;;;10.80;2.00;;;;;;;-146.27;100.00;81825.78;5068043;28;20039;-72
2023/08/03 08:01:30;;;;;;;5.72;2.10;;;;;;;-146.27;100.00;81819.75;5058009;28;20040;-71
2023/08/03 08:03:56;;;;;;;6.68;1.90;;;;;;;-146.27;99.62;81813.72;5067009;28;20050;-73
2023/08/03 08:06:21;;;;;;;9.65;2.10;;;;;;;-146.27;99.91;81757.50;5064132;28;20392;-72
2023/08/03 08:08:49;;;;;;;7.95;1.65;;;;;;;-146.27;98.76;81699.25;5060730;28;20426;-72
2023/08/03 08:11:15;;;;;;;6.93;1.65;;;;;;;-146.27;98.65;81665.09;5055703;28;20531;-72
2023/08/03 08:13:41;;;;;;;6.72;1.95;;;;;;;-146.27;97.81;81649.03;5057944;28;20077;-73
2023/08/03 08:16:10;;;;;;;6.05;1.38;;;;;;;-146.27;96.36;81669.13;5056061;28;20039;-73
2023/08/03 08:18:36;;;;;;;8.77;1.92;;;;;;;-146.27;96.01;81643.00;5067932;28;20036;-74
2023/08/03 08:21:04;;;;;;;7.70;1.63;;;;;;;-146.27;96.17;81580.75;5064880;28;20487;-73
2023/08/03 08:23:30;;;;;;;7.45;2.10;;;;;;;-146.27;96.16;81681.16;5049114;28;20488;-73
2023/08/03 08:25:57;;;;;;;7.07;1.80;;;;;;;-146.27;96.53;81636.97;5053437;28;20591;-72
2023/08/03 08:28:23;;;;;;;10.13;1.80;;;;;;;-146.27;96.84;81620.91;5056421;28;20028;-73
2023/08/03 08:30:50;;;;;;;8.98;1.85;;;;;;;-146.27;95.52;81592.78;5054307;28;20029;-74
2023/08/03 08:33:17;;;;;;;8.77;1.90;;;;;;;-146.27;95.43;81574.72;5051982;28;20035;-74
2023/08/03 08:35:43;;;;;;;5.47;1.63;;;;;;;-146.27;94.83;81566.69;5059705;28;20064;-75
2023/08/03 08:38:10;;;;;;;15.52;2.05;;;;;;;-146.27;95.32;81518.50;5054734;28;20112;-75
2023/08/03 08:40:36;;;;;;;6.82;1.70;;;;;;;-146.27;94.04;81536.56;5053742;28;20024;-74
2023/08/03 08:43:02;;;;;;;8.48;2.05;;;;;;;-146.27;94.21;81512.47;5050637;28;20029;-74
2023/08/03 08:45:30;;;;;;;11.55;2.00;;;;;;;-146.27;93.23;81504.44;5060986;28;20043;-75
2023/08/03 08:47:55;;;;;;;6.45;1.38;;;;;;;-146.27;93.54;81466.28;5052339;28;20390;-74
2023/08/03 08:50:21;;;;;;;6.72;1.60;;;;;;;-146.27;94.19;81492.38;5057286;28;20107;-74
2023/08/03 08:52:47;;;;;;;12.65;2.20;;;;;;;-146.27;97.75;81614.88;5056507;28;20512;-75
2023/08/03 08:55:22;;;;;;;8.65;2.00;;;;;;;-146.27;98.47;81628.94;5056948;28;20330;-74
2023/08/03 08:57:52;;;;;;;5.25;1.77;;;;;;;-146.27;100.00;81731.38;5051378;28;20628;-74
2023/08/03 09:00:19;;;;;;;9.25;2.03;;;;;;;-146.27;100.00;81825.78;5057356;28;20396;-74
2023/08/03 09:02:45;;;;;;;14.05;2.30;;;;;;;-146.27;100.00;81833.81;5069461;28;20025;-74
2023/08/03 09:05:20;;;;;;;7.38;2.03;;;;;;;-146.27;100.00;81801.69;5060205;28;20548;-74
2023/08/03 09:08:07;;;;;;;17.92;3.00;;;;;;;-146.27;100.00;81829.78;5070952;28;20167;-73
2023/08/03 09:10:56;;;;;;;16.08;2.72;;;;;;;-146.27;100.00;81851.88;5061096;28;20040;-73
2023/08/03 09:13:32;;;;;;;19.13;3.17;;;;;;;-146.27;100.00;81757.50;5057005;28;20561;-72
2023/08/03 09:15:59;;;;;;;21.85;3.22;;;;;;;-146.27;100.00;81769.53;5062766;28;20032;-75
2023/08/03 09:18:27;;;;;;;15.93;3.53;;;;;;;-146.27;100.00;81765.53;5060424;28;20081;-73
2023/08/03 09:21:15;;;;;;;19.15;3.75;;;;;;;-146.27;100.00;81723.34;5066711;28;20117;-73
2023/08/03 09:23:40;;;;;;;14.40;2.67;;;;;;;-146.27;100.00;81679.16;5052753;28;20041;-74
2023/08/03 09:26:06;;;;;;;14.02;2.72;;;;;;;-146.27;100.00;81604.84;5059922;28;20028;-74
2023/08/03 09:28:37;;;;;;;13.05;2.10;;;;;;;-146.27;100.00;81636.97;5069187;28;20035;-73
2023/08/03 09:31:03;;;;;;;13.32;1.67;;;;;;;-146.27;100.00;81604.84;5061315;28;20099;-74
2023/08/03 09:33:30;;;;;;;8.90;1.63;;;;;;;-146.27;100.00;81600.84;5061627;28;20136;-73
2023/08/03 09:36:10;;;;;;;11.23;1.77;;;;;;;-146.27;100.00;81653.06;5057070;28;20451;-73
2023/08/03 09:38:37;;;;;;;11.80;1.40;;;;;;;-146.27;100.00;81590.78;5050079;28;20103;-74
2023/08/03 09:41:02;;;;;;;7.22;1.10;;;;;;;-146.27;100.00;81560.66;5055817;28;20043;-73
2023/08/03 09:43:28;;;;;;;12.43;2.28;;;;;;;-146.27;100.00;81552.63;5052604;28;20405;-73
2023/08/03 09:45:54;;;;;;;9.98;1.58;;;;;;;-146.27;99.95;81546.59;5052964;28;20055;-73
2023/08/03 09:48:20;;;;;;;4.70;1.30;;;;;;;-146.27;97.56;81552.63;5049187;28;20485;-75
2023/08/03 09:50:51;;;;;;;8.48;1.35;;;;;;;-146.27;97.36;81516.47;5050168;28;20025;-73
2023/08/03 09:53:19;;;;;;;8.32;1.48;;;;;;;-146.27;97.08;81460.25;5061863;28;20092;-73
2023/08/03 09:56:00;;;;;;;4.95;1.17;;;;;;;-146.27;95.73;81434.13;5051120;28;20024;-73
2023/08/03 09:58:42;;;;;;;12.20;1.88;;;;;;;-146.27;95.90;81397.97;5062629;28;20024;-74
2023/08/03 10:01:12;;;;;;;9.73;1.77;;;;;;;-146.27;96.73;81303.59;5052852;28;20028;-73
2023/08/03 10:03:41;;;;;;;9.15;1.52;;;;;;;-146.27;97.10;81267.44;5054606;28;20032;-73
2023/08/03 10:06:17;;;;;;;12.27;2.10;;;;;;;-146.27;93.48;81225.28;5055541;28;20028;-73
2023/08/03 10:09:01;;;;;;;6.63;1.50;;;;;;;-146.27;93.99;81430.13;5053536;28;20504;-73
2023/08/03 10:11:31;;;;;;;8.32;1.42;;;;;;;-146.27;95.47;81456.22;5062136;28;20129;-74
2023/08/03 10:14:03;;;;;;;6.43;1.40;;;;;;;-146.27;97.43;81520.50;5051254;28;20029;-73
2023/08/03 10:16:29;;;;;;;4.25;1.27;;;;;;;-146.27;98.09;81636.97;5068533;28;20543;-72
2023/08/03 10:18:55;;;;;;;4.03;1.40;;;;;;;-146.27;99.53;81649.03;5064013;28;20055;-72
2023/08/03 10:21:21;;;;;;;7.97;1.42;;;;;;;-146.27;100.00;81689.19;5059647;28;20056;-72
2023/08/03 10:24:10;;;;;;;10.70;2.03;;;;;;;-146.27;100.00;81723.34;5055456;28;20035;-72
2023/08/03 10:26:35;;;;;;;6.00;1.48;;;;;;;-146.27;100.00;81769.53;5067309;28;20063;-72
2023/08/03 10:29:00;;;;;;;5.13;1.30;;;;;;;-146.27;100.00;81871.97;5065659;28;20036;-71
2023/08/03 10:31:26;;;;;;;5.80;1.50;;;;;;;-146.27;100.00;81855.91;5066302;28;20036;-72
2023/08/03 10:33:51;;;;;;;7.68;2.00;;;;;;;-146.27;100.00;81888.03;5061473;28;20032;-73
2023/08/03 10:36:29;;;;;;;12.13;1.92;;;;;;;-146.27;100.00;81946.28;5063234;28;20511;-72
2023/08/03 10:39:06;;;;;;;8.63;2.38;;;;;;;-146.27;100.00;81952.31;5049648;28;20033;-72
2023/08/03 10:41:53;;;;;;;8.45;1.60;;;;;;;-146.27;100.00;82010.56;5056281;28;20388;-72
2023/08/03 10:44:20;;;;;;;10.50;2.50;;;;;;;-146.27;100.00;82024.63;5063212;28;20029;-72
2023/08/03 10:46:53;;;;;;;19.90;2.67;;;;;;;-146.27;100.00;82028.66;5069565;28;20021;-72
2023/08/03 10:49:25;;;;;;;9.13;2.75;;;;;;;-146.27;100.00;82034.66;5063656;28;20058;-72
2023/08/03 10:52:13;;;;;;;20.92;3.10;;;;;;;-146.27;100.00;82022.63;5058541;28;20064;-73
2023/08/03 10:54:39;;;;;;;17.17;3.35;;;;;;;-146.27;100.00;82062.78;5050295;28;20094;-72
2023/08/03 10:57:09;;;;;;;17.17;2.70;;;;;;;-146.27;100.00;81986.47;5071057;28;20024;-72
2023/08/03 10:59:39;;;;;;;7.55;2.10;;;;;;;-146.27;100.00;82038.69;5066240;28;20028;-72
2023/08/03 11:02:32;;;;;;;17.73;3.40;;;;;;;-146.27;100.00;82036.69;5072854;28;20032;-72
2023/08/03 11:05:01;;;;;;;13.43;2.85;;;;;;;-146.27;100.00;82034.66;5068274;28;20451;-72